danielmochdotcom

Nikola site for www.danielmoch.com
git clone git://git.danielmoch.com/danielmochdotcom.git
Log | Files | Refs

DateCommit messageAuthorFiles+-
2020-01-18 14:11Use system fontsDaniel Moch2+9-9
2019-11-12 01:21Screw pipenvDaniel Moch2+4-18
2019-11-12 01:21Make www subdomain canonicalDaniel Moch1+1-1
2019-08-29 10:16Projects: Remove crap joke about spaces v tabsDaniel Moch1+0-2
2019-07-19 09:09Use JPG for og:imageDaniel Moch17+94-14
2019-07-17 22:58Convert site.css to site.scssDaniel Moch6+204-160
2019-07-16 01:42Add new postDaniel Moch1+173-0
2019-07-13 00:44Add OG/Twitter metadata to home pageDaniel Moch2+50-0
2019-07-13 00:44Remove site twitter handleDaniel Moch1+0-1
2019-07-13 00:44Update post preview imagesDaniel Moch12+12-12
2019-07-12 00:57Remove content footerDaniel Moch4+13-4
2019-07-12 00:53Move License info into confDaniel Moch2+26-19
2019-07-12 00:38Remove post footerDaniel Moch1+0-13
2019-07-11 23:40Add site links to sidebarDaniel Moch3+12-1
2019-07-11 23:39Posts: Reformat subtitleDaniel Moch1+6-10
2019-07-11 10:44Sidebar: Add license infoDaniel Moch1+8-0
2019-07-11 10:36Remove Pipfile.lockDaniel Moch2+1-735
2019-07-11 10:33Add LICENSE.txtDaniel Moch1+21-0
2019-07-11 10:18Sidebar: Fix hard-coded elementDaniel Moch1+1-1
2019-07-11 09:50Sidebar: Sort links for consistencyDaniel Moch1+1-1
2019-07-11 09:41More readable datesDaniel Moch1+1-1
2019-07-11 09:41Sidebar: Add p-name to h-cardDaniel Moch1+1-0
2019-07-11 09:40Sidebar: Add <hr> for smaller screensDaniel Moch1+1-0
2019-07-10 23:01Add u-photo, p-note elementsDaniel Moch1+2-2
2019-07-10 22:58Align banner with content on small screensDaniel Moch1+1-1
2019-07-09 09:57Fix banner padding for small screensDaniel Moch1+1-0
2019-07-08 10:36Add files/static to version controlDaniel Moch3+88-1
2019-07-07 21:49Website redesignDaniel Moch9+102-77
2019-04-12 10:57Fix site deploymentDaniel Moch1+1-1
2019-04-12 10:53Update Mastodon linkDaniel Moch1+1-1
2019-02-20 11:13Fix links in post indexDaniel Moch1+1-1
2019-02-05 11:47Add profile comment re: user dataDaniel Moch1+2-1
2019-02-05 11:45Change to rsync over SSH; absolute link pathsDaniel Moch1+2-2
2019-01-28 00:17FontAwesome and IndieWebDaniel Moch20+4543-30
2019-01-27 17:13Adjust rel="me" linksDaniel Moch1+2-2
2019-01-27 04:05Add avatar image to assetsDaniel Moch1+0-0
2018-12-18 00:02Use bullet character for nav/listsDaniel Moch1+1-1
2018-12-17 23:34Use seriff font on headingsDaniel Moch7+44-3
2018-12-17 10:51Minor style touchupsDaniel Moch2+9-3
2018-12-17 02:31Fix theme colorDaniel Moch1+1-1
2018-12-16 20:31Enable OpenGraph/Twitter cardsDaniel Moch19+223-81
2018-12-16 11:57Link to about pages in ProjectsDaniel Moch1+5-5
2018-12-16 11:50Change banner imageDaniel Moch3+2-2
2018-12-15 15:10Add logo to bannerDaniel Moch5+21-6
2018-12-14 14:50Add faviconDaniel Moch2+7-4
2018-12-14 01:48rel="me" *all* the links?Daniel Moch1+4-4
2018-12-14 01:09Add me ref to mastodon linkDaniel Moch1+9-16
2018-12-14 00:50Re-add email addressDaniel Moch1+3-0
2018-12-12 11:03Add Pipfile.lockDaniel Moch1+735-0
2018-12-08 15:22Remove emailDaniel Moch1+0-3
2018-12-05 00:49Add docutils.conf to obscure email addressesDaniel Moch2+5-0
2018-12-04 01:02Remove source linkDaniel Moch1+1-1
2018-12-02 19:11Fix tags postDaniel Moch1+15-7
2018-12-02 23:31Tags postDaniel Moch1+235-0
2018-12-02 19:11Add normalize.cssDaniel Moch1+349-0
2018-11-10 19:20Add Zsh compinit postDaniel Moch1+124-0
2018-11-09 10:23Support code syntax highlightingDaniel Moch1+1-0
2018-10-20 13:22Fix paddingDaniel Moch1+2-2
2018-10-20 03:03Add Page Source linkDaniel Moch4+32-15
2018-10-19 20:30Point project links to personal Git. Add Makefile.Daniel Moch2+54-6
2018-10-19 00:33Getting Started On MastodonDaniel Moch1+111-0
2018-10-18 23:30Add Git linkDaniel Moch1+1-0
2018-10-16 23:58Add link to category in postDaniel Moch1+4-1
2018-10-16 21:49Add categories and archiveDaniel Moch3+26-1
2018-10-16 02:17Normalize date in postsDaniel Moch2+2-2
2018-10-15 10:27HTTP link to JinjaDaniel Moch1+1-1
2018-10-15 10:19Teasers and PaginationDaniel Moch8+27-4
2018-10-15 00:26Add error pagesDaniel Moch4+37-0
2018-10-14 20:24post: New Website BackendDaniel Moch2+22-1
2018-10-14 17:49Initial commitDaniel Moch38+2266-0